Phil Campbell, Alabama
Current Conditions -  °F | °C
As of 3:56 PM on Monday 24 Nov 2014 (Local Time) from K1M4 Reporting Station
Clear Clear  
Wind Chill: 56°   Ceiling: Unl
Heat Index: 56°   Visibility: 10mi
Dew Point: 38°   Wind: 8mph
Humidity: 51%   Direction: 260°W
Pressure: 29.93"   Gusts: NA
Location:  34.35°N, 87.71°W
Report Text: K1M4 242156Z AUTO 26007KT 10SM CLR 13/03 A2993 RMK AO2 T01330033 SLP147
Loading
Personal Weather Stations






























Interactive Weather Map New forecast layout! Learn more

10-Day Weather Forecast

Advertisements
Track Severe Weather on mobile